createdAt,value
2023-03-24T00:04:35.180Z,15.19
2023-03-24T00:09:36.353Z,15.35
2023-03-24T00:14:36.564Z,15.36
2023-03-24T00:19:37.693Z,15.42
2023-03-24T00:24:38.942Z,15.48
2023-03-24T00:29:40.083Z,15.59
2023-03-24T00:34:41.222Z,15.61
2023-03-24T00:39:42.415Z,15.67
2023-03-24T00:44:44.576Z,15.84
2023-03-24T00:49:43.805Z,15.93
2023-03-24T00:54:44.975Z,13.98
2023-03-24T00:59:46.510Z,13.96
2023-03-24T01:04:45.648Z,13.87
2023-03-24T01:09:46.839Z,13.88
2023-03-24T01:14:48.000Z,13.95
2023-03-24T01:19:49.149Z,13.91
2023-03-24T01:24:50.350Z,13.98
2023-03-24T01:29:51.580Z,13.92
2023-03-24T01:34:52.886Z,13.91
2023-03-24T01:39:54.174Z,14.04
2023-03-24T01:44:55.353Z,14.17
2023-03-24T01:49:56.576Z,13.92
2023-03-24T01:54:57.708Z,13.52
2023-03-24T01:59:58.970Z,13.33
2023-03-24T02:05:00.120Z,13.38
2023-03-24T02:10:05.181Z,13.09
2023-03-24T02:15:02.385Z,13.00
2023-03-24T02:20:03.567Z,12.93
2023-03-24T02:25:04.685Z,13.00
2023-03-24T02:30:05.832Z,13.07
2023-03-24T02:35:07.032Z,13.04
2023-03-24T02:40:08.175Z,13.06
2023-03-24T02:45:09.312Z,13.03
2023-03-24T02:50:10.530Z,13.04
2023-03-24T02:55:12.675Z,12.97
2023-03-24T03:00:11.794Z,12.87
2023-03-24T03:05:13.023Z,13.11
2023-03-24T03:10:14.235Z,12.96
2023-03-24T03:15:16.402Z,13.25
2023-03-24T03:20:15.641Z,13.36
2023-03-24T03:25:16.781Z,13.58
2023-03-24T03:30:17.950Z,14.06
2023-03-24T03:35:20.286Z,14.43
2023-03-24T03:40:19.401Z,14.34
2023-03-24T03:45:20.530Z,14.17
2023-03-24T03:50:21.741Z,13.63
2023-03-24T03:55:23.300Z,12.93
2023-03-24T04:00:24.130Z,12.67
2023-03-24T04:05:23.125Z,12.77
2023-03-24T04:10:24.289Z,12.67
2023-03-24T04:15:25.447Z,12.60
2023-03-24T04:20:26.651Z,12.69
2023-03-24T04:25:27.828Z,12.71
2023-03-24T04:30:28.991Z,12.63
2023-03-24T04:35:30.169Z,12.54
2023-03-24T04:40:31.403Z,12.41
2023-03-24T04:45:32.626Z,12.41
2023-03-24T04:50:33.747Z,12.38
2023-03-24T04:55:34.908Z,12.26
2023-03-24T05:00:36.073Z,11.94
2023-03-24T05:05:37.280Z,12.06
2023-03-24T05:10:38.436Z,11.96
2023-03-24T05:15:39.684Z,12.04
2023-03-24T05:20:40.797Z,11.78
2023-03-24T05:25:43.218Z,11.87
2023-03-24T05:30:42.647Z,11.89
2023-03-24T05:35:43.941Z,12.06
2023-03-24T05:40:44.260Z,12.38
2023-03-24T05:45:43.946Z,12.49
2023-03-24T05:50:43.365Z,12.52
2023-03-24T05:55:44.611Z,12.33
2023-03-24T06:00:45.918Z,12.20
2023-03-24T06:05:47.343Z,12.31
2023-03-24T06:10:46.695Z,12.09
2023-03-24T06:15:48.482Z,12.06
2023-03-24T06:20:47.797Z,12.33
2023-03-24T06:25:48.938Z,12.45
2023-03-24T06:30:50.145Z,12.85
2023-03-24T06:35:51.361Z,13.20
2023-03-24T06:40:52.548Z,13.62
2023-03-24T06:45:53.781Z,13.76
2023-03-24T06:50:54.947Z,13.80
2023-03-24T06:55:56.189Z,14.07
2023-03-24T07:00:57.409Z,14.32
2023-03-24T07:05:58.606Z,14.54
2023-03-24T07:10:59.732Z,15.08
2023-03-24T07:15:59.982Z,15.33
2023-03-24T07:21:01.125Z,15.30
2023-03-24T07:26:02.326Z,15.35
2023-03-24T07:31:04.537Z,15.42
2023-03-24T07:36:03.814Z,15.64
2023-03-24T07:41:05.010Z,15.60
2023-03-24T07:46:08.407Z,15.45
2023-03-24T07:51:06.297Z,15.48
2023-03-24T07:56:07.393Z,15.19
2023-03-24T08:01:08.633Z,14.99
2023-03-24T08:06:09.873Z,15.27
2023-03-24T08:11:11.066Z,15.36
2023-03-24T08:16:12.503Z,15.51
2023-03-24T08:21:14.064Z,15.48
2023-03-24T08:26:13.124Z,15.57
2023-03-24T08:31:14.311Z,15.45
2023-03-24T08:36:15.463Z,15.64
2023-03-24T08:41:16.571Z,15.67
2023-03-24T08:46:17.725Z,15.61
2023-03-24T08:51:18.928Z,15.66
2023-03-24T08:56:20.056Z,15.67
2023-03-24T09:01:21.264Z,15.64
2023-03-24T09:06:21.391Z,15.68
2023-03-24T09:11:23.643Z,15.15
2023-03-24T09:16:23.752Z,14.74
2023-03-24T09:21:22.898Z,14.44
2023-03-24T09:26:24.041Z,14.53
2023-03-24T09:31:25.196Z,14.94
2023-03-24T09:36:26.369Z,15.28
2023-03-24T09:41:28.416Z,15.20
2023-03-24T09:46:28.670Z,15.59
2023-03-24T09:51:27.731Z,15.67
2023-03-24T09:56:27.880Z,15.89
2023-03-24T10:01:30.020Z,16.00
2023-03-24T10:06:29.199Z,15.64
2023-03-24T10:11:29.349Z,15.49
2023-03-24T10:16:30.538Z,15.02
2023-03-24T10:21:31.659Z,14.94
2023-03-24T10:26:33.783Z,14.93
2023-03-24T10:31:32.970Z,14.81
2023-03-24T10:36:35.108Z,14.75
2023-03-24T10:41:34.178Z,15.02
2023-03-24T10:46:35.343Z,15.06
2023-03-24T10:51:36.398Z,14.78
2023-03-24T10:56:37.563Z,14.37
2023-03-24T11:01:39.724Z,14.34
2023-03-24T11:06:38.806Z,14.43
2023-03-24T11:11:39.963Z,14.25
2023-03-24T11:16:41.117Z,14.34
2023-03-24T11:21:42.236Z,14.60
2023-03-24T11:26:43.362Z,14.81
2023-03-24T11:31:45.582Z,14.72
2023-03-24T11:36:47.138Z,15.03
2023-03-24T11:41:44.623Z,15.21
2023-03-24T11:46:45.702Z,15.23
2023-03-24T11:51:46.854Z,14.56
2023-03-24T11:56:48.978Z,14.10
2023-03-24T12:01:47.040Z,13.84
2023-03-24T12:06:49.231Z,13.54
2023-03-24T12:11:48.435Z,13.74
2023-03-24T12:16:49.622Z,13.80
2023-03-24T12:21:50.715Z,13.81
2023-03-24T12:26:51.882Z,13.98
2023-03-24T12:31:53.176Z,13.98
2023-03-24T12:36:54.415Z,13.87
2023-03-24T12:41:55.606Z,13.96
2023-03-24T12:46:56.865Z,14.38
2023-03-24T12:51:58.927Z,14.54
2023-03-24T12:56:58.071Z,14.31
2023-03-24T13:01:59.164Z,14.10
2023-03-24T13:07:00.238Z,13.98
2023-03-24T13:12:01.341Z,13.87
2023-03-24T13:17:02.568Z,13.61
2023-03-24T13:22:03.670Z,13.51
2023-03-24T13:27:04.920Z,13.29
2023-03-24T13:32:06.192Z,12.99
2023-03-24T13:37:07.319Z,12.67
2023-03-24T13:42:08.574Z,12.67
2023-03-24T13:47:09.830Z,12.57
2023-03-24T13:52:10.925Z,12.39
2023-03-24T13:57:12.040Z,12.30
2023-03-24T14:02:13.263Z,12.19
2023-03-24T14:07:14.472Z,12.30
2023-03-24T14:12:15.631Z,12.30
2023-03-24T14:17:16.840Z,12.12
2023-03-24T14:22:18.080Z,12.45
2023-03-24T14:27:19.281Z,12.41
2023-03-24T14:32:22.419Z,12.59
2023-03-24T14:37:21.484Z,12.51
2023-03-24T14:42:26.519Z,12.46
2023-03-24T14:47:23.695Z,12.23
2023-03-24T14:52:24.844Z,12.63
2023-03-24T14:57:26.936Z,12.79
2023-03-24T15:02:26.307Z,12.87
2023-03-24T15:07:27.582Z,12.63
2023-03-24T15:12:28.729Z,12.93
2023-03-24T15:17:29.872Z,12.88
2023-03-24T15:22:31.102Z,12.46
2023-03-24T15:27:32.236Z,12.64
2023-03-24T15:32:33.466Z,12.70
2023-03-24T15:37:34.562Z,12.66
2023-03-24T15:42:35.753Z,12.63
2023-03-24T15:47:36.988Z,12.71
2023-03-24T15:52:38.118Z,12.70
2023-03-24T15:57:39.293Z,12.84
2023-03-24T16:02:40.583Z,12.77
2023-03-24T16:07:41.714Z,12.70
2023-03-24T16:12:42.851Z,12.70
2023-03-24T16:17:44.001Z,12.66
2023-03-24T16:22:45.135Z,12.52
2023-03-24T16:27:46.255Z,12.39
2023-03-24T16:32:47.461Z,12.41
2023-03-24T16:37:48.599Z,12.42
2023-03-24T16:42:49.762Z,12.38
2023-03-24T16:47:51.849Z,12.38
2023-03-24T16:52:51.979Z,12.33
2023-03-24T16:57:51.100Z,12.31
2023-03-24T17:02:52.359Z,12.52
2023-03-24T17:07:53.538Z,12.27
2023-03-24T17:12:55.954Z,12.15
2023-03-24T17:17:55.367Z,12.41
2023-03-24T17:22:56.515Z,12.26
2023-03-24T17:27:57.717Z,12.06
2023-03-24T17:33:00.861Z,12.09
2023-03-24T17:38:00.098Z,11.75
2023-03-24T17:43:01.270Z,11.59
2023-03-24T17:48:01.655Z,11.46
2023-03-24T17:53:02.883Z,11.32
2023-03-24T17:58:03.188Z,11.41
2023-03-24T18:03:05.505Z,11.31
2023-03-24T18:08:04.737Z,11.36
2023-03-24T18:13:06.215Z,11.41
2023-03-24T18:18:06.723Z,11.39
2023-03-24T18:23:05.959Z,11.46
2023-03-24T18:28:07.122Z,11.61
2023-03-24T18:33:08.648Z,11.56
2023-03-24T18:38:07.945Z,11.44
2023-03-24T18:43:09.381Z,11.39
2023-03-24T18:48:11.510Z,11.43
2023-03-24T18:53:13.068Z,11.21
2023-03-24T18:58:12.699Z,11.06
2023-03-24T19:03:12.330Z,10.96
2023-03-24T19:08:13.670Z,10.80
2023-03-24T19:13:13.286Z,10.56
2023-03-24T19:18:13.019Z,10.68
2023-03-24T19:23:13.413Z,10.76
2023-03-24T19:28:12.968Z,10.73
2023-03-24T19:33:13.823Z,10.71
2023-03-24T19:38:13.341Z,10.65
2023-03-24T19:43:12.885Z,10.52
2023-03-24T19:48:12.554Z,10.62
2023-03-24T19:53:12.149Z,10.62
2023-03-24T19:58:11.781Z,10.58
2023-03-24T20:03:11.527Z,10.58
2023-03-24T20:08:11.023Z,10.51
2023-03-24T20:13:12.543Z,10.40
2023-03-24T20:18:11.978Z,10.32
2023-03-24T20:23:13.512Z,10.17
2023-03-24T20:28:12.980Z,10.33
2023-03-24T20:33:12.947Z,10.22
2023-03-24T20:38:12.906Z,10.21
2023-03-24T20:43:12.541Z,9.99
2023-03-24T20:48:12.093Z,9.79
2023-03-24T20:53:11.639Z,9.63
2023-03-24T20:58:10.797Z,9.63
2023-03-24T21:03:13.133Z,9.58
2023-03-24T21:08:12.549Z,9.46
2023-03-24T21:13:13.802Z,9.52
2023-03-24T21:18:15.175Z,9.39
2023-03-24T21:23:16.674Z,9.25
2023-03-24T21:28:15.983Z,9.21
2023-03-24T21:33:17.221Z,9.57
2023-03-24T21:38:18.329Z,9.39
2023-03-24T21:43:18.483Z,9.20
2023-03-24T21:48:19.785Z,8.97
2023-03-24T21:53:20.967Z,8.79
2023-03-24T21:58:23.176Z,8.54
2023-03-24T22:03:22.369Z,8.58
2023-03-24T22:08:23.590Z,8.51
2023-03-24T22:13:24.686Z,8.47
2023-03-24T22:18:25.851Z,8.54
2023-03-24T22:23:26.983Z,8.48
2023-03-24T22:28:29.201Z,8.68
2023-03-24T22:33:28.302Z,8.88
2023-03-24T22:38:29.427Z,8.69
2023-03-24T22:43:30.531Z,8.97
2023-03-24T22:48:31.616Z,8.75
2023-03-24T22:53:32.809Z,8.75
2023-03-24T22:58:33.981Z,8.88
2023-03-24T23:03:35.138Z,9.39
2023-03-24T23:08:36.329Z,8.90
2023-03-24T23:13:37.567Z,8.68
2023-03-24T23:18:38.740Z,8.30
2023-03-24T23:23:39.922Z,7.99
2023-03-24T23:28:41.144Z,7.97
2023-03-24T23:33:42.460Z,8.40
2023-03-24T23:38:43.659Z,8.54
2023-03-24T23:43:44.883Z,10.10
2023-03-24T23:48:47.004Z,9.88
2023-03-24T23:53:46.190Z,10.19
2023-03-24T23:58:47.346Z,10.37
